Time;durP1;ratioP1;P1;durP2;ratioP2;P2;SDS_P1;SDS_P2;PMS_P1;PMS_P2;Temp;Humidity;BMP_temperature;BMP_pressure;BME280_temperature;BME280_humidity;BME280_pressure;Samples;Min_cycle;Max_cycle;Signal;HPM_P1;HPM_P2
2022/07/30 00:01:11;;;;;;;5.40;3.92;;;;;;;30.70;50.36;96786.16;5074746;28;20065;-35
2022/07/30 00:03:37;;;;;;;4.00;3.60;;;;;;;30.68;50.14;96774.75;5074613;28;20024;-35
2022/07/30 00:06:02;;;;;;;5.05;4.07;;;;;;;30.64;50.11;96775.13;5074226;28;20070;-36
2022/07/30 00:08:28;;;;;;;7.32;4.03;;;;;;;30.62;50.46;96774.94;5074623;28;20133;-35
2022/07/30 00:10:53;;;;;;;7.45;4.57;;;;;;;30.68;49.73;96774.75;5074159;28;20025;-36
2022/07/30 00:13:19;;;;;;;7.40;3.80;;;;;;;30.57;50.03;96775.81;5074408;28;20431;-35
2022/07/30 00:15:45;;;;;;;7.18;3.50;;;;;;;30.63;50.31;96761.69;5074215;28;20470;-36
2022/07/30 00:18:11;;;;;;;4.95;4.53;;;;;;;30.66;50.21;96760.59;5074400;28;20031;-35
2022/07/30 00:20:39;;;;;;;4.45;3.80;;;;;;;30.66;49.93;96752.19;5074200;28;20027;-35
2022/07/30 00:23:05;;;;;;;5.15;4.05;;;;;;;30.58;49.92;96746.53;5074298;28;20098;-35
2022/07/30 00:25:31;;;;;;;4.00;3.60;;;;;;;30.63;49.97;96750.47;5074060;28;20028;-36
2022/07/30 00:27:56;;;;;;;5.25;3.80;;;;;;;30.59;50.34;96750.09;5074146;28;20024;-35
2022/07/30 00:30:22;;;;;;;6.45;3.97;;;;;;;30.60;49.81;96745.97;5074217;28;20032;-36
2022/07/30 00:32:47;;;;;;;5.07;4.13;;;;;;;30.70;50.00;96736.50;5073960;28;20028;-36
2022/07/30 00:35:13;;;;;;;5.18;4.43;;;;;;;30.75;49.54;96728.50;5072114;28;20020;-35
2022/07/30 00:37:39;;;;;;;5.38;3.90;;;;;;;30.63;49.50;96731.63;5072062;28;20029;-36
2022/07/30 00:40:07;;;;;;;5.30;4.15;;;;;;;30.61;49.83;96727.88;5073750;28;20052;-35
2022/07/30 00:42:41;;;;;;;5.68;4.25;;;;;;;30.68;49.74;96735.56;5072457;28;20081;-35
2022/07/30 00:45:08;;;;;;;5.80;4.32;;;;;;;30.65;49.37;96731.84;5073875;28;20048;-35
2022/07/30 00:47:34;;;;;;;5.72;4.28;;;;;;;30.78;49.29;96733.00;5072425;28;20438;-35
2022/07/30 00:50:03;;;;;;;5.10;4.00;;;;;;;30.67;50.02;96726.41;5073833;28;20052;-35
2022/07/30 00:52:31;;;;;;;6.10;4.10;;;;;;;30.74;49.82;96727.00;5073759;28;20016;-36
2022/07/30 00:54:57;;;;;;;5.47;4.10;;;;;;;30.68;49.61;96719.50;5073629;28;20025;-35
2022/07/30 00:57:23;;;;;;;5.32;4.10;;;;;;;30.71;49.83;96734.44;5073654;28;20036;-36
2022/07/30 00:59:48;;;;;;;5.72;4.50;;;;;;;30.75;49.77;96708.91;5073674;28;20020;-35
2022/07/30 01:02:20;;;;;;;5.70;3.88;;;;;;;30.61;49.82;96708.28;5073545;28;20363;-35
2022/07/30 01:04:46;;;;;;;5.13;4.10;;;;;;;30.71;50.13;96704.41;5073707;28;20470;-35
2022/07/30 01:07:11;;;;;;;7.28;4.13;;;;;;;30.63;49.55;96706.44;5073355;28;20031;-35
2022/07/30 01:09:38;;;;;;;6.07;4.10;;;;;;;30.69;50.06;96701.41;5073455;28;20032;-35
2022/07/30 01:12:05;;;;;;;6.50;4.40;;;;;;;30.67;49.99;96701.22;5073686;28;20028;-35
2022/07/30 01:14:33;;;;;;;6.35;4.65;;;;;;;30.74;50.52;96705.34;5073413;28;20027;-35
2022/07/30 01:17:03;;;;;;;6.32;4.30;;;;;;;30.78;49.49;96705.75;5073487;28;20020;-35
2022/07/30 01:19:48;;;;;;;7.47;4.72;;;;;;;30.73;49.91;96706.66;5073330;28;20028;-36
2022/07/30 01:22:28;;;;;;;7.15;4.50;;;;;;;30.69;49.43;96704.22;5073252;28;20028;-35
2022/07/30 01:25:06;;;;;;;6.23;4.10;;;;;;;30.56;50.07;96698.00;5073288;28;20032;-35
2022/07/30 01:27:35;;;;;;;5.80;3.92;;;;;;;30.70;49.83;96697.31;5073351;28;20716;-35
2022/07/30 01:30:03;;;;;;;4.70;4.20;;;;;;;30.70;49.85;96702.16;5073118;28;20073;-35
2022/07/30 01:32:31;;;;;;;4.75;3.88;;;;;;;30.65;49.98;96697.50;5073299;28;20028;-35
2022/07/30 01:35:01;;;;;;;5.50;4.60;;;;;;;30.77;50.15;96695.84;5073351;28;20040;-35
2022/07/30 01:37:29;;;;;;;7.65;4.05;;;;;;;30.69;49.49;96703.47;5073309;28;20032;-35
2022/07/30 01:39:55;;;;;;;8.10;4.20;;;;;;;30.73;49.71;96701.06;5073111;28;20025;-35
2022/07/30 01:42:23;;;;;;;5.40;4.30;;;;;;;30.70;50.01;96696.56;5073165;28;20027;-35
2022/07/30 01:44:49;;;;;;;6.90;4.18;;;;;;;30.59;50.19;96699.69;5073054;28;20041;-35
2022/07/30 01:47:18;;;;;;;5.60;4.38;;;;;;;30.60;50.05;96696.34;5072976;28;20020;-35
2022/07/30 01:49:46;;;;;;;7.03;4.03;;;;;;;30.70;50.01;96690.97;5073111;28;20029;-35
2022/07/30 01:52:13;;;;;;;6.50;4.45;;;;;;;30.60;49.59;96695.59;5073046;28;20025;-35
2022/07/30 01:54:42;;;;;;;5.85;4.53;;;;;;;30.59;50.05;96691.31;5072905;28;20020;-35
2022/07/30 01:57:09;;;;;;;4.47;4.07;;;;;;;30.56;50.25;96695.94;5073092;28;20043;-34
2022/07/30 01:59:38;;;;;;;6.07;4.30;;;;;;;30.48;50.12;96688.81;5076266;28;20100;-35
2022/07/30 02:02:03;;;;;;;5.70;4.53;;;;;;;30.53;49.80;96682.31;5076926;28;20024;-35
2022/07/30 02:04:29;;;;;;;5.15;4.53;;;;;;;30.53;49.99;96679.50;5077262;28;20024;-35
2022/07/30 02:10:29;;;;;;;6.55;4.38;;;;;;;30.55;50.13;96676.91;5076618;28;20035;-35
2022/07/30 02:12:56;;;;;;;5.13;4.05;;;;;;;30.54;49.83;96678.25;5076734;28;20020;-34
2022/07/30 02:15:29;;;;;;;4.45;3.95;;;;;;;30.54;50.24;96676.16;5076749;28;20017;-34
2022/07/30 02:18:05;;;;;;;5.90;4.43;;;;;;;30.59;50.02;96668.91;5076726;28;20031;-35
2022/07/30 02:20:33;;;;;;;6.15;4.40;;;;;;;30.68;49.20;96676.75;5076547;28;20034;-34
2022/07/30 02:23:05;;;;;;;4.82;4.32;;;;;;;30.69;49.80;96681.06;5076358;28;20097;-35
2022/07/30 02:25:33;;;;;;;5.45;3.90;;;;;;;30.65;49.43;96675.09;5076599;28;20107;-35
2022/07/30 02:28:04;;;;;;;5.75;4.35;;;;;;;30.47;50.42;96676.13;5076586;28;20604;-36
2022/07/30 02:30:32;;;;;;;5.68;4.05;;;;;;;30.54;49.60;96669.84;5076425;28;20032;-35
2022/07/30 02:33:04;;;;;;;4.80;4.30;;;;;;;30.64;49.66;96677.16;5076282;28;20028;-35
2022/07/30 02:35:32;;;;;;;9.52;4.60;;;;;;;30.67;49.58;96673.22;5076667;28;20020;-34
2022/07/30 02:37:59;;;;;;;4.65;3.83;;;;;;;30.64;49.53;96670.81;5076198;28;20505;-35
2022/07/30 02:40:26;;;;;;;6.28;4.72;;;;;;;30.78;49.33;96660.19;5076135;28;20024;-35
2022/07/30 02:42:52;;;;;;;4.78;4.25;;;;;;;30.72;49.14;96663.16;5076399;28;20490;-35
2022/07/30 02:45:21;;;;;;;4.65;3.88;;;;;;;30.72;49.34;96663.16;5075872;28;20079;-36
2022/07/30 02:47:52;;;;;;;6.03;4.30;;;;;;;30.72;48.78;96663.16;5076192;28;20024;-35
2022/07/30 02:50:19;;;;;;;6.53;4.63;;;;;;;30.75;48.67;96661.31;5076435;28;20025;-35
2022/07/30 02:52:47;;;;;;;5.30;4.07;;;;;;;30.75;49.13;96664.84;5075945;28;20070;-35
2022/07/30 02:55:15;;;;;;;5.35;4.35;;;;;;;30.69;48.71;96664.25;5076054;28;20028;-34
2022/07/30 02:57:43;;;;;;;4.75;3.85;;;;;;;30.77;48.76;96659.44;5076058;28;20028;-35
2022/07/30 03:00:09;;;;;;;4.80;3.97;;;;;;;30.80;48.43;96658.31;5075859;28;20081;-35
2022/07/30 03:02:36;;;;;;;5.18;4.68;;;;;;;30.81;48.71;96659.81;5075893;28;20026;-35
2022/07/30 03:05:04;;;;;;;5.78;4.65;;;;;;;30.81;48.62;96668.22;5075818;28;20026;-35
2022/07/30 03:07:30;;;;;;;5.50;4.05;;;;;;;30.79;48.04;96656.81;5075635;28;20505;-35
2022/07/30 03:09:58;;;;;;;4.72;3.85;;;;;;;30.83;48.61;96657.22;5073665;28;20036;-35
2022/07/30 03:12:25;;;;;;;6.47;4.35;;;;;;;30.75;48.17;96648.06;5075582;28;20021;-35
2022/07/30 03:14:50;;;;;;;4.88;4.38;;;;;;;30.82;47.94;96649.34;5075777;28;20020;-34
2022/07/30 03:17:18;;;;;;;4.75;3.85;;;;;;;30.78;48.54;96644.16;5075832;28;20466;-35
2022/07/30 03:19:46;;;;;;;5.20;4.32;;;;;;;30.80;48.37;96632.38;5075543;28;20035;-35
2022/07/30 03:22:15;;;;;;;5.53;4.28;;;;;;;30.81;47.88;96637.41;5075053;28;20063;-35
2022/07/30 03:24:43;;;;;;;5.10;4.18;;;;;;;30.82;47.85;96632.56;5075523;28;20178;-36
2022/07/30 03:27:09;;;;;;;3.90;3.50;;;;;;;30.79;47.74;96634.41;5075274;28;20068;-35
2022/07/30 03:29:38;;;;;;;5.45;4.68;;;;;;;30.79;47.64;96634.41;5074878;28;20028;-35
2022/07/30 03:32:04;;;;;;;4.18;3.78;;;;;;;30.77;48.17;96625.84;5075315;28;20375;-35
2022/07/30 03:34:33;;;;;;;4.75;4.32;;;;;;;30.78;47.72;96627.34;5075247;28;20495;-35
2022/07/30 03:37:00;;;;;;;4.88;4.45;;;;;;;30.80;47.93;96633.13;5075023;28;20024;-35
2022/07/30 03:39:28;;;;;;;4.25;3.85;;;;;;;30.80;48.02;96635.91;5075376;28;20051;-35
2022/07/30 03:41:54;;;;;;;4.88;4.40;;;;;;;30.76;47.70;96637.59;5074908;28;20020;-35
2022/07/30 03:44:21;;;;;;;6.38;4.00;;;;;;;30.77;47.59;96637.06;5074941;28;20491;-35
2022/07/30 03:46:49;;;;;;;5.70;4.40;;;;;;;30.76;47.61;96632.00;5075195;28;20060;-35
2022/07/30 03:49:16;;;;;;;5.57;4.32;;;;;;;30.78;47.71;96638.53;5074829;28;20107;-35
2022/07/30 03:51:42;;;;;;;6.45;4.28;;;;;;;30.77;47.68;96642.66;5074530;28;20418;-34
2022/07/30 03:54:10;;;;;;;6.70;4.65;;;;;;;30.74;48.13;96638.16;5074508;28;20025;-35
2022/07/30 03:56:37;;;;;;;5.05;4.10;;;;;;;30.74;47.96;96637.41;5074810;28;20109;-34
2022/07/30 03:59:04;;;;;;;6.13;4.38;;;;;;;30.76;47.87;96646.75;5074603;28;20028;-35
2022/07/30 04:01:30;;;;;;;7.93;4.63;;;;;;;30.73;48.12;96653.47;5074625;28;20016;-35
2022/07/30 04:04:09;;;;;;;6.30;4.40;;;;;;;30.75;47.82;96658.50;5074522;28;20035;-34
2022/07/30 04:06:38;;;;;;;4.57;4.13;;;;;;;30.70;48.14;96657.38;5074530;28;20079;-35
2022/07/30 04:09:13;;;;;;;5.97;4.13;;;;;;;30.76;47.58;96665.59;5074717;28;20021;-35
2022/07/30 04:11:39;;;;;;;6.40;3.92;;;;;;;30.73;48.18;96659.06;5074596;28;20470;-35
2022/07/30 04:14:04;;;;;;;6.05;4.00;;;;;;;30.77;47.97;96662.25;5073899;28;20035;-35
2022/07/30 04:16:42;;;;;;;5.55;4.25;;;;;;;30.76;48.09;96657.19;5074589;28;20024;-34
2022/07/30 04:19:14;;;;;;;5.60;4.15;;;;;;;30.68;48.13;96657.91;5074383;28;20048;-35
2022/07/30 04:21:41;;;;;;;4.88;4.07;;;;;;;30.67;48.21;96653.63;5074158;28;20028;-36
2022/07/30 04:24:09;;;;;;;7.07;4.25;;;;;;;30.71;48.04;96661.66;5074088;28;20038;-35
2022/07/30 04:26:36;;;;;;;4.82;3.90;;;;;;;30.68;48.12;96662.78;5073999;28;20020;-35
2022/07/30 04:29:05;;;;;;;4.97;3.92;;;;;;;30.68;47.81;96665.56;5073727;28;20024;-35
2022/07/30 04:31:34;;;;;;;5.68;4.00;;;;;;;30.64;47.76;96668.75;5074116;28;20024;-35
2022/07/30 04:34:02;;;;;;;6.53;4.50;;;;;;;30.68;47.54;96673.97;5073816;28;20027;-36
2022/07/30 04:36:29;;;;;;;6.28;4.60;;;;;;;30.68;47.59;96680.31;5073946;28;20077;-34
2022/07/30 04:38:55;;;;;;;6.47;4.47;;;;;;;30.68;47.48;96687.97;5074026;28;20107;-35
2022/07/30 04:41:20;;;;;;;7.72;4.80;;;;;;;30.65;48.09;96687.03;5074004;28;20016;-36
2022/07/30 04:43:49;;;;;;;5.18;4.35;;;;;;;30.69;47.93;96681.06;5073453;28;20387;-35
2022/07/30 04:46:15;;;;;;;5.90;4.38;;;;;;;30.63;48.12;96688.91;5079634;28;20448;-35
2022/07/30 04:48:40;;;;;;;6.75;4.82;;;;;;;30.62;47.92;96682.56;5092377;28;20088;-35
2022/07/30 04:51:12;;;;;;;6.38;4.78;;;;;;;30.64;47.56;96684.78;5080746;28;20375;-35
2022/07/30 04:53:40;;;;;;;6.45;4.43;;;;;;;30.62;47.67;96681.81;5071930;28;20555;-36
2022/07/30 04:56:06;;;;;;;8.77;4.55;;;;;;;30.62;48.03;96679.00;5071364;28;20032;-35
2022/07/30 04:58:34;;;;;;;6.47;4.50;;;;;;;30.65;48.14;96681.44;5071721;28;20024;-34
2022/07/30 05:01:01;;;;;;;5.53;4.40;;;;;;;30.68;47.41;96683.13;5071608;28;20051;-35
2022/07/30 05:03:28;;;;;;;5.20;4.60;;;;;;;30.61;47.57;96683.09;5084021;28;20371;-35
2022/07/30 05:05:55;;;;;;;5.82;4.60;;;;;;;30.67;47.65;96689.25;5091872;28;20056;-35
2022/07/30 05:08:23;;;;;;;5.80;4.60;;;;;;;30.63;48.04;96697.28;5090104;28;20016;-35
2022/07/30 05:10:48;;;;;;;6.63;4.90;;;;;;;30.67;47.84;96695.63;5091867;28;20034;-35
2022/07/30 05:13:15;;;;;;;6.43;4.70;;;;;;;30.63;47.52;96694.50;5092049;28;20106;-35
2022/07/30 05:15:43;;;;;;;5.65;4.60;;;;;;;30.61;47.89;96692.25;5091960;28;20027;-35
2022/07/30 05:18:09;;;;;;;4.97;4.10;;;;;;;30.61;48.03;96708.28;5091823;28;20394;-36
2022/07/30 05:20:35;;;;;;;6.03;4.53;;;;;;;30.60;47.92;96713.16;5091569;28;20048;-35
2022/07/30 05:23:01;;;;;;;4.78;4.10;;;;;;;30.57;47.71;96708.66;5091490;28;20024;-36
2022/07/30 05:25:26;;;;;;;4.88;4.43;;;;;;;30.57;47.64;96707.91;5091582;28;20393;-36
2022/07/30 05:27:52;;;;;;;5.47;4.00;;;;;;;30.58;48.26;96715.75;5091462;28;20032;-35
2022/07/30 05:30:18;;;;;;;5.40;4.53;;;;;;;30.60;47.96;96718.00;5090107;28;20389;-35
2022/07/30 05:32:43;;;;;;;4.80;4.22;;;;;;;30.57;48.09;96707.91;5090562;28;20028;-35
2022/07/30 05:35:09;;;;;;;5.80;4.22;;;;;;;30.59;47.75;96706.03;5091659;28;20020;-36
2022/07/30 05:37:34;;;;;;;4.55;4.15;;;;;;;30.59;47.98;96713.69;5091625;28;20161;-35
2022/07/30 05:40:00;;;;;;;4.90;3.95;;;;;;;30.59;47.98;96722.84;5078638;28;20028;-35
2022/07/30 05:42:25;;;;;;;5.75;4.10;;;;;;;30.63;47.26;96723.25;5069916;28;20126;-34
2022/07/30 05:44:50;;;;;;;3.92;3.50;;;;;;;30.61;47.19;96725.84;5070967;28;20048;-35
2022/07/30 05:47:19;;;;;;;4.18;3.78;;;;;;;30.60;47.61;96729.19;5071272;28;20028;-35
2022/07/30 05:49:45;;;;;;;5.10;4.20;;;;;;;30.54;48.26;96731.41;5071811;28;20021;-35
2022/07/30 05:52:12;;;;;;;5.13;3.92;;;;;;;30.58;47.88;96724.16;5073202;28;20493;-35
2022/07/30 05:54:38;;;;;;;4.10;3.70;;;;;;;30.59;47.43;96731.25;5073124;28;20020;-35
2022/07/30 05:57:03;;;;;;;4.22;3.85;;;;;;;30.59;47.57;96739.63;5073019;28;20033;-35
2022/07/30 05:59:29;;;;;;;4.70;3.38;;;;;;;30.56;47.37;96743.53;5071689;28;20027;-35
2022/07/30 06:01:54;;;;;;;4.60;3.22;;;;;;;30.59;47.75;96744.50;5073024;28;20115;-34
2022/07/30 06:04:20;;;;;;;3.63;3.30;;;;;;;30.55;47.47;96739.25;5072747;28;20381;-34
2022/07/30 06:06:45;;;;;;;7.72;3.58;;;;;;;30.54;47.80;96737.03;5072842;28;20027;-35
2022/07/30 06:09:11;;;;;;;4.95;3.05;;;;;;;30.54;47.18;96745.41;5072822;28;20078;-37
2022/07/30 06:11:36;;;;;;;3.78;3.13;;;;;;;30.57;47.08;96747.09;5073119;28;20037;-35
2022/07/30 06:14:02;;;;;;;4.03;3.20;;;;;;;30.51;47.38;96735.28;5072963;28;20075;-34
2022/07/30 06:16:27;;;;;;;3.60;2.72;;;;;;;30.58;46.93;96738.13;5072868;28;20017;-37
2022/07/30 06:18:52;;;;;;;4.15;3.05;;;;;;;30.55;47.03;96738.50;5072912;28;20150;-35
2022/07/30 06:21:18;;;;;;;4.32;2.95;;;;;;;30.55;47.19;96735.69;5072751;28;20048;-34
2022/07/30 06:23:43;;;;;;;4.88;2.90;;;;;;;30.54;46.94;96729.34;5072528;28;20036;-34
2022/07/30 06:26:09;;;;;;;3.28;2.95;;;;;;;30.58;46.88;96737.38;5072933;28;20048;-34
2022/07/30 06:28:34;;;;;;;3.20;2.70;;;;;;;30.54;46.64;96743.34;5071476;28;20488;-35
2022/07/30 06:31:01;;;;;;;3.15;2.85;;;;;;;30.54;46.66;96751.00;5072578;28;20020;-35
2022/07/30 06:33:26;;;;;;;3.17;2.53;;;;;;;30.57;46.60;96749.88;5073041;28;20025;-34
2022/07/30 06:35:52;;;;;;;4.22;3.03;;;;;;;30.53;46.72;96749.47;5072557;28;20031;-35
2022/07/30 06:38:18;;;;;;;3.03;2.72;;;;;;;30.53;47.03;96755.09;5072486;28;20064;-35
2022/07/30 06:40:43;;;;;;;3.67;2.35;;;;;;;30.55;47.00;96750.44;5072435;28;20100;-35
2022/07/30 06:43:09;;;;;;;6.00;2.88;;;;;;;30.48;47.03;96753.94;5072601;28;20481;-35
2022/07/30 06:45:34;;;;;;;3.97;3.08;;;;;;;30.48;46.49;96761.56;5075127;28;20055;-35
2022/07/30 06:48:00;;;;;;;3.50;2.67;;;;;;;30.50;47.06;96761.78;5075913;28;20028;-35
2022/07/30 06:50:26;;;;;;;4.15;2.47;;;;;;;30.55;46.73;96752.47;5075773;28;20028;-35
2022/07/30 06:52:52;;;;;;;5.90;3.05;;;;;;;30.53;46.58;96746.69;5076025;28;20078;-35
2022/07/30 06:55:17;;;;;;;4.20;2.55;;;;;;;30.50;46.35;96748.53;5075928;28;20052;-35
2022/07/30 06:57:43;;;;;;;2.60;2.40;;;;;;;30.47;46.30;96744.03;5076012;28;20055;-35
2022/07/30 07:00:09;;;;;;;3.97;2.78;;;;;;;30.46;46.28;96752.97;5076132;28;20082;-35
2022/07/30 07:02:34;;;;;;;4.15;2.72;;;;;;;30.34;46.63;96758.16;5075671;28;20028;-35
2022/07/30 07:05:00;;;;;;;2.92;2.60;;;;;;;30.42;46.77;96752.59;5075895;28;20031;-34
2022/07/30 07:07:26;;;;;;;4.07;2.75;;;;;;;30.47;46.56;96754.47;5075552;28;20470;-35
2022/07/30 07:09:52;;;;;;;3.08;2.47;;;;;;;30.42;46.62;96753.34;5075612;28;20020;-35
2022/07/30 07:12:18;;;;;;;2.40;2.20;;;;;;;30.47;46.05;96760.81;5075621;28;20095;-34
2022/07/30 07:14:43;;;;;;;3.95;2.47;;;;;;;30.39;46.68;96753.72;5075446;28;20386;-34
2022/07/30 07:17:10;;;;;;;3.88;2.55;;;;;;;30.46;46.02;96752.97;5075759;28;20017;-35
2022/07/30 07:19:35;;;;;;;2.65;2.45;;;;;;;30.44;46.59;96750.72;5075508;28;20033;-35
2022/07/30 07:22:01;;;;;;;3.58;2.30;;;;;;;30.46;46.01;96748.13;5075423;28;20032;-35
2022/07/30 07:24:26;;;;;;;3.05;2.70;;;;;;;30.38;46.43;96735.41;5075393;28;20046;-35
2022/07/30 07:26:52;;;;;;;3.58;2.47;;;;;;;30.33;46.28;96743.41;5075622;28;20029;-34
2022/07/30 07:29:17;;;;;;;2.50;2.30;;;;;;;30.41;45.95;96746.25;5075479;28;20107;-35
2022/07/30 07:31:42;;;;;;;3.05;2.53;;;;;;;30.36;46.48;96747.91;5075193;28;20025;-35
2022/07/30 07:34:08;;;;;;;4.63;2.20;;;;;;;30.44;46.24;96738.78;5075382;28;20493;-35
2022/07/30 07:36:35;;;;;;;3.60;2.63;;;;;;;30.45;45.69;96740.28;5075398;28;20487;-34
2022/07/30 07:39:00;;;;;;;2.95;2.63;;;;;;;29.48;47.64;96745.41;5074736;28;20478;-34
2022/07/30 07:41:26;;;;;;;5.05;3.22;;;;;;;29.69;47.60;96740.56;5074419;28;20040;-35
2022/07/30 07:43:51;;;;;;;3.97;2.35;;;;;;;29.97;46.67;96746.19;5075175;28;20020;-34
2022/07/30 07:46:16;;;;;;;3.13;2.65;;;;;;;30.07;46.41;96743.63;5074959;28;20037;-34
2022/07/30 07:48:43;;;;;;;4.95;3.03;;;;;;;30.12;46.13;96742.00;5074197;28;20029;-36
2022/07/30 07:51:08;;;;;;;3.33;2.42;;;;;;;30.14;46.27;96740.16;5072292;28;20034;-34
2022/07/30 07:53:34;;;;;;;5.85;2.72;;;;;;;30.19;46.08;96736.44;5074953;28;20100;-35
2022/07/30 07:56:00;;;;;;;3.70;2.53;;;;;;;30.20;45.85;96740.72;5074118;28;20035;-35
2022/07/30 07:58:25;;;;;;;7.88;3.15;;;;;;;30.04;46.05;96736.38;5075006;28;20070;-34
2022/07/30 08:00:51;;;;;;;4.32;2.70;;;;;;;30.06;46.55;96730.94;5074899;28;20167;-35
2022/07/30 08:03:16;;;;;;;3.72;2.53;;;;;;;29.98;46.60;96732.97;5074630;28;20024;-34
2022/07/30 08:05:42;;;;;;;5.75;2.83;;;;;;;30.11;46.22;96746.84;5074399;28;20539;-35
2022/07/30 08:08:07;;;;;;;3.90;2.63;;;;;;;30.14;46.12;96742.19;5074555;28;20096;-35
2022/07/30 08:10:33;;;;;;;3.50;2.40;;;;;;;30.15;46.14;96746.50;5074404;28;20539;-35
2022/07/30 08:12:58;;;;;;;4.63;2.78;;;;;;;30.04;46.49;96750.34;5074354;28;20439;-35
2022/07/30 08:15:24;;;;;;;3.95;2.78;;;;;;;30.03;46.08;96745.31;5074591;28;20032;-35
2022/07/30 08:17:49;;;;;;;5.22;3.00;;;;;;;30.07;45.81;96745.69;5074525;28;20056;-35
2022/07/30 08:20:23;;;;;;;2.28;2.08;;;;;;;30.10;46.10;96744.59;5074441;28;20021;-35
2022/07/30 08:22:49;;;;;;;3.30;2.72;;;;;;;30.14;45.59;96754.13;5074449;28;20020;-35
2022/07/30 08:25:15;;;;;;;3.30;2.50;;;;;;;30.13;45.76;96747.03;5074106;28;20369;-35
2022/07/30 08:27:40;;;;;;;3.17;2.63;;;;;;;30.02;45.96;96738.97;5074056;28;20486;-35
2022/07/30 08:30:07;;;;;;;4.80;2.53;;;;;;;29.92;45.67;96740.75;5074247;28;20032;-35
2022/07/30 08:32:34;;;;;;;3.67;2.63;;;;;;;30.06;45.68;96749.78;5074052;28;20039;-34
2022/07/30 08:35:00;;;;;;;4.13;2.63;;;;;;;29.95;45.47;96750.81;5074043;28;20037;-35
2022/07/30 08:37:25;;;;;;;4.50;2.38;;;;;;;30.00;45.02;96741.56;5073927;28;20020;-35
2022/07/30 08:39:50;;;;;;;6.40;2.53;;;;;;;29.96;44.91;96741.16;5074052;28;20024;-35
2022/07/30 08:42:16;;;;;;;5.10;2.60;;;;;;;30.02;44.55;96741.75;5074258;28;20028;-35
2022/07/30 08:44:45;;;;;;;3.47;2.70;;;;;;;29.88;44.55;96748.72;5073877;28;20097;-35
2022/07/30 08:47:16;;;;;;;2.50;2.30;;;;;;;29.86;44.76;96754.09;5073789;28;20073;-35
2022/07/30 08:49:42;;;;;;;2.75;2.38;;;;;;;29.97;44.70;96751.03;5073701;28;20020;-35
2022/07/30 08:52:09;;;;;;;3.45;2.40;;;;;;;30.02;44.17;96733.38;5073979;28;20027;-34
2022/07/30 08:54:35;;;;;;;4.38;2.53;;;;;;;30.08;44.46;96736.75;5073765;28;20032;-34
2022/07/30 08:57:01;;;;;;;3.90;2.20;;;;;;;30.09;44.36;96732.66;5072884;28;20028;-35
2022/07/30 08:59:28;;;;;;;3.53;2.65;;;;;;;29.98;44.10;96725.31;5073500;28;20475;-35
2022/07/30 09:01:53;;;;;;;3.38;2.45;;;;;;;29.83;44.27;96727.22;5073532;28;20024;-35
2022/07/30 09:04:19;;;;;;;4.55;2.42;;;;;;;29.69;44.53;96739.81;5073610;28;20486;-34
2022/07/30 09:06:44;;;;;;;3.42;2.47;;;;;;;29.65;43.57;96740.91;5073463;28;20055;-35
2022/07/30 09:09:10;;;;;;;3.33;2.50;;;;;;;29.59;44.65;96737.50;5072929;28;20170;-35
2022/07/30 09:11:35;;;;;;;6.15;2.50;;;;;;;29.47;44.51;96741.88;5073501;28;20111;-35
2022/07/30 09:14:09;;;;;;;3.88;2.55;;;;;;;29.74;43.35;96733.31;5073417;28;20028;-34
2022/07/30 09:16:35;;;;;;;5.35;2.53;;;;;;;29.43;43.57;96729.53;5073373;28;20112;-35
2022/07/30 09:19:15;;;;;;;4.70;2.50;;;;;;;29.81;43.47;96727.78;5073519;28;20024;-35
2022/07/30 09:21:41;;;;;;;2.97;2.33;;;;;;;29.96;43.38;96727.16;5073564;28;20027;-34
2022/07/30 09:24:10;;;;;;;3.47;2.20;;;;;;;29.83;42.95;96733.56;5073420;28;20024;-34
2022/07/30 09:26:59;;;;;;;3.03;2.22;;;;;;;29.84;43.03;96728.72;5073289;28;20406;-35
2022/07/30 09:29:27;;;;;;;4.53;2.40;;;;;;;29.94;42.54;96732.53;5070445;28;20492;-35
2022/07/30 09:32:08;;;;;;;2.88;2.67;;;;;;;29.84;42.43;96734.31;5073142;28;20063;-34
2022/07/30 09:34:36;;;;;;;4.80;2.50;;;;;;;29.93;43.06;96742.22;5073238;28;20036;-34
2022/07/30 09:37:04;;;;;;;4.20;2.70;;;;;;;29.93;42.32;96742.22;5073228;28;20020;-35
2022/07/30 09:39:32;;;;;;;3.22;2.35;;;;;;;29.86;42.62;96738.06;5073136;28;20021;-34
2022/07/30 09:41:59;;;;;;;5.13;2.40;;;;;;;29.63;41.25;96732.31;5073226;28;20028;-35
2022/07/30 09:44:28;;;;;;;4.93;2.55;;;;;;;29.82;42.12;96739.72;5072810;28;20405;-34
2022/07/30 09:46:53;;;;;;;3.33;2.47;;;;;;;29.83;41.50;96746.81;5073202;28;20024;-34
2022/07/30 09:49:27;;;;;;;4.18;2.83;;;;;;;29.95;41.61;96742.41;5073285;28;20051;-34
2022/07/30 09:51:54;;;;;;;8.93;2.60;;;;;;;30.04;41.82;96732.81;5073191;28;20036;-34
2022/07/30 09:54:20;;;;;;;3.03;2.45;;;;;;;29.92;41.60;96730.28;5073016;28;21377;-34
2022/07/30 09:56:46;;;;;;;3.95;2.58;;;;;;;29.93;42.18;96731.78;5073137;28;20494;-35
2022/07/30 09:59:29;;;;;;;5.35;2.33;;;;;;;29.94;42.66;96724.13;5073216;28;20450;-34
2022/07/30 10:01:56;;;;;;;5.53;2.78;;;;;;;30.03;42.22;96714.53;5072965;28;20043;-35
2022/07/30 10:04:30;;;;;;;3.60;2.78;;;;;;;29.99;42.26;96718.44;5073129;28;20039;-35
2022/07/30 10:06:58;;;;;;;3.25;2.65;;;;;;;29.91;41.66;96712.03;5072853;28;20029;-34
2022/07/30 10:09:31;;;;;;;4.70;2.50;;;;;;;29.95;42.44;96708.84;5072957;28;20021;-34
2022/07/30 10:12:00;;;;;;;;;;;;;;;29.95;42.36;96708.84;5073521;28;20111;-34
2022/07/30 10:14:32;;;;;;;5.30;2.60;;;;;;;30.06;41.94;96702.97;5072849;28;20289;-35
2022/07/30 10:16:58;;;;;;;5.03;2.78;;;;;;;30.07;42.20;96695.34;5072854;28;20020;-34
2022/07/30 10:19:24;;;;;;;3.67;2.70;;;;;;;30.01;42.13;96692.72;5074330;28;20028;-34
2022/07/30 10:21:52;;;;;;;3.42;2.60;;;;;;;30.03;41.78;96695.72;5076656;28;20033;-34
2022/07/30 10:24:18;;;;;;;4.00;2.85;;;;;;;29.96;42.26;96696.41;5076410;28;20510;-34
2022/07/30 10:26:50;;;;;;;3.13;2.38;;;;;;;29.99;42.07;96690.47;5076434;28;20024;-34
2022/07/30 10:29:18;;;;;;;5.07;2.60;;;;;;;29.90;41.50;96690.94;5076398;28;20077;-34
2022/07/30 10:32:01;;;;;;;3.28;2.22;;;;;;;29.98;41.68;96691.00;5076227;28;20028;-35
2022/07/30 10:34:28;;;;;;;3.90;2.33;;;;;;;29.78;41.54;96686.22;5076399;28;20021;-34
2022/07/30 10:36:58;;;;;;;5.90;2.63;;;;;;;29.97;41.67;96695.09;5074961;28;20404;-34
2022/07/30 10:39:28;;;;;;;3.80;2.33;;;;;;;29.95;41.22;96686.50;5076502;28;20032;-34
2022/07/30 10:42:17;;;;;;;5.13;2.67;;;;;;;29.96;41.01;96691.56;5076587;28;20020;-35
2022/07/30 10:45:00;;;;;;;5.10;2.42;;;;;;;29.79;40.53;96685.66;5088434;28;20080;-34
2022/07/30 10:47:26;;;;;;;;;;;;;;;30.02;41.40;96685.81;5077773;28;20429;-34
2022/07/30 10:50:05;;;;;;;2.80;2.22;;;;;;;30.00;41.33;96671.63;5075907;28;19908;-35
2022/07/30 10:52:45;;;;;;;5.03;2.75;;;;;;;30.03;41.01;96672.59;5077097;28;20047;-35
2022/07/30 10:55:13;;;;;;;4.85;2.42;;;;;;;29.89;39.57;96680.31;5080758;28;20034;-34
2022/07/30 10:57:57;;;;;;;3.47;2.40;;;;;;;29.73;41.28;96678.72;5095966;28;20069;-34
2022/07/30 11:00:24;;;;;;;4.53;2.47;;;;;;;29.94;40.67;96682.19;5096170;28;20034;-35
2022/07/30 11:03:14;;;;;;;5.97;2.90;;;;;;;30.02;41.11;96671.09;5096308;28;20016;-35
2022/07/30 11:05:40;;;;;;;3.35;2.53;;;;;;;30.03;40.21;96673.34;5095848;28;20030;-34
2022/07/30 11:08:37;;;;;;;3.53;2.30;;;;;;;29.84;40.65;96670.78;5095981;28;20016;-34
2022/07/30 11:11:26;;;;;;;5.03;2.60;;;;;;;29.94;40.88;96671.00;5096264;28;20024;-34
2022/07/30 11:13:58;;;;;;;3.00;2.47;;;;;;;29.83;41.44;96668.53;5091942;28;20065;-35
2022/07/30 11:16:33;;;;;;;3.90;2.33;;;;;;;29.81;41.52;96668.31;5094669;28;20026;-35
2022/07/30 11:19:05;;;;;;;4.00;2.53;;;;;;;29.94;41.21;96668.22;5095879;28;20024;-35
2022/07/30 11:21:31;;;;;;;4.68;2.38;;;;;;;29.86;39.67;96668.19;5095875;28;20026;-34
2022/07/30 11:23:57;;;;;;;5.50;2.75;;;;;;;29.87;40.51;96672.47;5095975;28;20028;-34
2022/07/30 11:26:38;;;;;;;4.00;2.40;;;;;;;29.86;40.31;96659.03;5095456;28;20032;-34
2022/07/30 11:29:05;;;;;;;6.20;2.70;;;;;;;29.82;40.65;96658.63;5095506;28;20023;-34
2022/07/30 11:31:36;;;;;;;2.80;2.50;;;;;;;29.96;40.96;96662.84;5094555;28;20474;-35
2022/07/30 11:34:19;;;;;;;2.88;2.50;;;;;;;29.84;41.52;96659.59;5095458;28;20035;-34
2022/07/30 11:37:06;;;;;;;2.95;2.30;;;;;;;29.87;41.01;96652.91;5096018;28;20024;-34
2022/07/30 11:39:56;;;;;;;4.55;2.60;;;;;;;29.82;40.73;96648.19;5095276;28;20104;-35
2022/07/30 11:42:23;;;;;;;2.45;2.25;;;;;;;29.94;40.74;96637.44;5095352;28;20069;-34